Weather History for Lewisburg, WV

Change the Weather History Date:

Saturday, November 12, 2011

  Actual Average Record
Temperature  
Mean Temperature 42 °F -  
Max Temperature 60 °F 51 °F 73 °F (1949)
Min Temperature 23 °F 32 °F 10 °F (1957)
Degree Days  
Heating Degree Days 24    
Moisture  
Dew Point 22 °F    
Average Humidity 50    
Maximum Humidity 86    
Minimum Humidity 20    
Precipitation  
Precipitation 0.00 in - - ()
Sea Level Pressure  
Sea Level Pressure 30.15 in    
Wind  
Wind Speed 3 mph (SW)    
Max Wind Speed 15 mph    
Max Gust Speed 21 mph    
Visibility 10 miles    
Events      
Averages and records for this station are not official NWS values.
T = Trace of Precipitation, MM = Missing Value Source: NWS Daily Summary

Daily Weather History Graph

Daily Weather History Graph

Search for Another Location

Airport:

Trip Planner

Search our weather history database for the weather conditions in past years. The results will help you decide how hot, cold, wet, or windy it might be!

Date:

Astronomy

Nov. 12, 2011 Rise Set
Actual Time 6:58 AM EST 5:12 PM EST
Civil Twilight 6:30 AM EST 5:40 PM EST
Nautical Twilight 5:59 AM EST 6:11 PM EST
Astronomical Twilight 5:28 AM EST 6:42 PM EST
Moon 6:29 PM EST (11/12) 8:37 AM EST (11/12)
Length of Visible Light 11h 09m
Length of Day
10h 14m
Full, 97% of the Moon is Illuminated
Nov 12
Full
Nov 18
Last Quarter
Nov 25
New
Dec 2
First Quarter
Dec 10
Full

Hourly Weather History & Observations

Time (EST) Temp. Windchill Dew Point Humidity Pressure Visibility Wind Dir Wind Speed Gust Speed Precip Events Conditions
12:15 AM 30.2 °F - 19.4 °F 64% 30.10 in 10.0 mi Calm Calm - N/A   Clear
12:35 AM 28.4 °F - 19.4 °F 69% 30.11 in 10.0 mi Calm Calm - N/A   Clear
12:55 AM 30.2 °F - 21.2 °F 69% 30.11 in 10.0 mi Calm Calm - N/A   Clear
1:15 AM 30.2 °F - 19.4 °F 64% 30.11 in 10.0 mi Calm Calm - N/A   Clear
1:35 AM 26.6 °F - 19.4 °F 74% 30.11 in 10.0 mi Calm Calm - N/A   Clear
1:55 AM 28.4 °F - 19.4 °F 69% 30.11 in 10.0 mi Calm Calm - N/A   Clear
2:15 AM 28.4 °F - 19.4 °F 69% 30.11 in 10.0 mi Calm Calm - N/A   Clear
2:35 AM 26.6 °F - 19.4 °F 74% 30.11 in 10.0 mi Calm Calm - N/A   Clear
2:55 AM 26.6 °F - 19.4 °F 74% 30.11 in 10.0 mi Calm Calm - N/A   Clear
3:15 AM 26.6 °F - 19.4 °F 74% 30.11 in 10.0 mi Calm Calm - N/A   Clear
3:35 AM 26.6 °F - 19.4 °F 74% 30.11 in 10.0 mi Calm Calm - N/A   Clear
3:55 AM 26.6 °F - 19.4 °F 74% 30.12 in 10.0 mi Calm Calm - N/A   Clear
4:15 AM 24.8 °F - 19.4 °F 80% 30.12 in 10.0 mi Calm Calm - N/A   Clear
4:55 AM 24.8 °F - 19.4 °F 80% 30.13 in 10.0 mi Calm Calm - N/A   Clear
5:15 AM 24.8 °F - 19.4 °F 80% 30.14 in 10.0 mi Calm Calm - N/A   Clear
5:35 AM 23.0 °F - 19.4 °F 86% 30.14 in 10.0 mi Calm Calm - N/A   Clear
5:55 AM 23.0 °F - 19.4 °F 86% 30.15 in 10.0 mi Calm Calm - N/A   Clear
6:15 AM 23.0 °F - 19.4 °F 86% 30.15 in 10.0 mi Calm Calm - N/A   Clear
6:35 AM 24.8 °F - 21.2 °F 86% 30.16 in 10.0 mi Calm Calm - N/A   Clear
7:15 AM 23.0 °F - 19.4 °F 86% 30.17 in 10.0 mi Calm Calm - N/A   Clear
7:55 AM 26.6 °F - 23.0 °F 86% 30.18 in 10.0 mi Calm Calm - N/A   Clear
8:15 AM 30.2 °F - 23.0 °F 75% 30.19 in 10.0 mi Calm Calm - N/A   Clear
8:35 AM 32.0 °F - 26.6 °F 80% 30.19 in 10.0 mi Calm Calm - N/A   Clear
8:55 AM 37.4 °F 34.9 °F 28.4 °F 70% 30.19 in 10.0 mi SSW 3.5 mph - N/A   Clear
9:15 AM 41.0 °F 38.0 °F 30.2 °F 65% 30.19 in 10.0 mi SSW 4.6 mph - N/A   Clear
9:35 AM 44.6 °F 40.7 °F 28.4 °F 53% 30.19 in 10.0 mi SW 6.9 mph - N/A   Clear
9:55 AM 46.4 °F 41.9 °F 28.4 °F 50% 30.19 in 10.0 mi WSW 9.2 mph - N/A   Clear
10:15 AM 46.4 °F 42.9 °F 28.4 °F 50% 30.19 in 10.0 mi WSW 6.9 mph - N/A   Clear
10:35 AM 50.0 °F - 28.4 °F 43% 30.19 in 10.0 mi SW 9.2 mph - N/A   Clear
10:55 AM 51.8 °F - 28.4 °F 41% 30.20 in 10.0 mi SW 12.7 mph - N/A   Clear
11:15 AM 51.8 °F - 28.4 °F 41% 30.19 in 10.0 mi SW 10.4 mph - N/A   Clear
11:35 AM 53.6 °F - 28.4 °F 38% 30.18 in 10.0 mi SW 8.1 mph - N/A   Clear
11:55 AM 55.4 °F - 28.4 °F 36% 30.17 in 10.0 mi SW 9.2 mph - N/A   Clear
12:15 PM 55.4 °F - 28.4 °F 36% 30.17 in 10.0 mi SW 10.4 mph - N/A   Clear
12:35 PM 57.2 °F - 28.4 °F 33% 30.16 in 10.0 mi SW 11.5 mph - N/A   Clear
12:55 PM 59.0 °F - 26.6 °F 29% 30.15 in 10.0 mi WSW 12.7 mph 20.7 mph N/A   Clear
1:15 PM 59.0 °F - 26.6 °F 29% 30.15 in 10.0 mi SSW 11.5 mph 17.3 mph N/A   Clear
1:35 PM 60.8 °F - 24.8 °F 25% 30.15 in 10.0 mi SW 13.8 mph 19.6 mph N/A   Clear
1:55 PM 60.8 °F - 23.0 °F 23% 30.14 in 10.0 mi WSW 13.8 mph 18.4 mph N/A   Clear
2:15 PM 60.8 °F - 23.0 °F 23% 30.14 in 10.0 mi SW 15.0 mph 20.7 mph N/A   Clear
2:35 PM 60.8 °F - 21.2 °F 22% 30.13 in 10.0 mi SW 12.7 mph - N/A   Clear
2:55 PM 60.8 °F - 21.2 °F 22% 30.13 in 10.0 mi SW 12.7 mph 16.1 mph N/A   Clear
3:15 PM 60.8 °F - 21.2 °F 22% 30.13 in 10.0 mi SW 10.4 mph 17.3 mph N/A   Clear
3:35 PM 60.8 °F - 19.4 °F 20% 30.13 in 10.0 mi WSW 9.2 mph 17.3 mph N/A   Clear
3:55 PM 60.8 °F - 21.2 °F 22% 30.14 in 10.0 mi SW 8.1 mph - N/A   Clear
4:15 PM 60.8 °F - 19.4 °F 20% 30.14 in 10.0 mi WSW 9.2 mph - N/A   Clear
4:35 PM 57.2 °F - 23.0 °F 27% 30.14 in 10.0 mi SW 4.6 mph - N/A   Clear
4:55 PM 55.4 °F - 23.0 °F 29% 30.14 in 10.0 mi SSW 4.6 mph - N/A   Clear
5:15 PM 53.6 °F - 23.0 °F 30% 30.15 in 10.0 mi SSW 3.5 mph - N/A   Clear
5:35 PM 53.6 °F - 21.2 °F 28% 30.15 in 10.0 mi Calm Calm - N/A   Clear
5:55 PM 51.8 °F - 21.2 °F 30% 30.15 in 10.0 mi South 3.5 mph - N/A   Clear
6:15 PM 51.8 °F - 21.2 °F 30% 30.15 in 10.0 mi Calm Calm - N/A   Clear
6:35 PM 50.0 °F - 21.2 °F 32% 30.15 in 10.0 mi Calm Calm - N/A   Clear
6:55 PM 50.0 °F - 21.2 °F 32% 30.15 in 10.0 mi Calm Calm - N/A   Clear
7:15 PM 46.4 °F 45.2 °F 21.2 °F 37% 30.16 in 10.0 mi SW 3.5 mph - N/A   Clear
7:35 PM 48.2 °F - 21.2 °F 34% 30.17 in 10.0 mi Calm Calm - N/A   Clear
7:55 PM 50.0 °F - 19.4 °F 30% 30.16 in 10.0 mi Calm Calm - N/A   Clear
8:35 PM 50.0 °F - 17.6 °F 28% 30.15 in 10.0 mi Calm Calm - N/A   Clear
9:15 PM 46.4 °F - 19.4 °F 34% 30.16 in 10.0 mi Calm Calm - N/A   Clear
9:35 PM 44.6 °F - 17.6 °F 34% 30.16 in 10.0 mi Calm Calm - N/A   Clear
9:55 PM 41.0 °F - 21.2 °F 45% 30.16 in 10.0 mi Calm Calm - N/A   Clear
10:15 PM 41.0 °F 39.0 °F 23.0 °F 49% 30.15 in 10.0 mi North 3.5 mph - N/A   Clear
10:35 PM 37.4 °F - 24.8 °F 60% 30.15 in 10.0 mi Calm Calm - N/A   Clear
10:55 PM 39.2 °F - 24.8 °F 56% 30.15 in 10.0 mi Calm Calm - N/A   Clear
11:15 PM 35.6 °F - 26.6 °F 70% 30.14 in 10.0 mi Calm Calm - N/A   Clear
11:35 PM 35.6 °F - 24.8 °F 65% 30.14 in 10.0 mi Calm Calm - N/A   Clear
11:55 PM 33.8 °F - 26.6 °F 75% 30.15 in 10.0 mi Calm Calm - N/A   Clear